Terminal Aerodrome Forecast
Issued by NWS Shreveport, LA

Home | Current Version | Previous Version | Text Only | Print | Product List | Glossary On
Versions: 1 2 3 4 5 6 7 8 9 10 11 12 13 14 15 16 17 18 19 20
000
FTUS44 KSHV 032200 AAC
TAFMLU
TAF AMD
KMLU 032236Z 0323/0418 20007KT P6SM SCT025 BKN050
      TEMPO 0400/0403 20012KT BKN020 OVC040
     FM040600 19007KT 5SM BR OVC004
     FM041200 19006KT 4SM BR OVC004=

USA.gov is the U.S. government's official web portal to all federal, state and local government web resources and services.